createdAt,value
2022-08-19T00:00:22.200Z,14.00
2022-08-19T00:01:28.855Z,15.50
2022-08-19T00:02:31.938Z,16.38
2022-08-19T00:03:33.603Z,13.60
2022-08-19T00:04:37.677Z,17.80
2022-08-19T00:05:39.587Z,23.13
2022-08-19T00:06:43.448Z,14.15
2022-08-19T00:07:45.126Z,16.02
2022-08-19T00:08:46.850Z,14.73
2022-08-19T00:09:48.481Z,15.38
2022-08-19T00:10:50.386Z,18.10
2022-08-19T00:11:54.040Z,13.60
2022-08-19T00:12:55.956Z,14.23
2022-08-19T00:13:58.194Z,18.10
2022-08-19T00:14:59.886Z,16.48
2022-08-19T00:16:02.134Z,14.23
2022-08-19T00:17:04.438Z,18.02
2022-08-19T00:18:06.115Z,16.08
2022-08-19T00:19:08.701Z,16.55
2022-08-19T00:20:13.647Z,17.10
2022-08-19T00:21:16.734Z,19.48
2022-08-19T00:22:19.174Z,14.40
2022-08-19T00:23:21.205Z,14.27
2022-08-19T00:24:23.623Z,15.68
2022-08-19T00:25:30.048Z,18.83
2022-08-19T00:26:32.640Z,17.95
2022-08-19T00:27:35.344Z,14.43
2022-08-19T00:28:37.883Z,16.90
2022-08-19T00:29:39.763Z,15.80
2022-08-19T00:30:41.889Z,18.73
2022-08-19T00:31:44.726Z,14.95
2022-08-19T00:32:46.799Z,17.10
2022-08-19T00:33:51.388Z,18.33
2022-08-19T00:34:53.768Z,14.68
2022-08-19T00:35:56.362Z,19.15
2022-08-19T00:36:58.704Z,17.05
2022-08-19T00:38:00.557Z,15.13
2022-08-19T00:39:02.287Z,16.63
2022-08-19T00:40:06.686Z,16.52
2022-08-19T00:41:09.830Z,14.80
2022-08-19T00:42:11.728Z,15.88
2022-08-19T00:43:14.777Z,18.10
2022-08-19T00:44:27.125Z,20.77
2022-08-19T00:45:32.641Z,18.88
2022-08-19T00:46:41.047Z,18.63
2022-08-19T00:47:42.870Z,15.07
2022-08-19T00:48:44.637Z,16.73
2022-08-19T00:49:52.498Z,18.77
2022-08-19T00:50:55.264Z,19.38
2022-08-19T00:52:08.226Z,20.08
2022-08-19T00:53:13.094Z,21.30
2022-08-19T00:54:16.051Z,22.85
2022-08-19T00:55:25.107Z,17.58
2022-08-19T00:56:27.974Z,15.23
2022-08-19T00:57:42.875Z,14.68
2022-08-19T00:58:45.883Z,17.30
2022-08-19T01:00:01.967Z,17.30
2022-08-19T01:01:06.231Z,18.15
2022-08-19T01:02:08.016Z,16.90
2022-08-19T01:03:13.684Z,18.75
2022-08-19T01:04:15.298Z,17.33
2022-08-19T01:05:21.951Z,17.08
2022-08-19T01:06:24.662Z,18.27
2022-08-19T01:07:26.407Z,15.93
2022-08-19T01:08:28.053Z,19.92
2022-08-19T01:09:30.985Z,15.27
2022-08-19T01:10:40.293Z,20.40
2022-08-19T01:11:44.977Z,16.05
2022-08-19T01:12:48.195Z,19.55
2022-08-19T01:13:53.195Z,17.77
2022-08-19T01:14:56.389Z,19.45
2022-08-19T01:16:05.658Z,18.25
2022-08-19T01:17:11.047Z,17.08
2022-08-19T01:18:16.277Z,18.58
2022-08-19T01:19:28.599Z,21.48
2022-08-19T01:20:30.303Z,14.98
2022-08-19T01:21:38.733Z,16.55
2022-08-19T01:22:47.537Z,22.60
2022-08-19T01:23:49.432Z,17.83
2022-08-19T01:24:52.812Z,20.98
2022-08-19T01:25:57.052Z,17.48
2022-08-19T01:27:00.894Z,16.55
2022-08-19T01:28:09.890Z,15.02
2022-08-19T01:29:12.966Z,16.58
2022-08-19T01:30:23.421Z,14.93
2022-08-19T01:31:32.559Z,17.35
2022-08-19T01:32:34.886Z,19.50
2022-08-19T01:33:36.684Z,15.70
2022-08-19T01:34:38.679Z,16.58
2022-08-19T01:35:41.935Z,15.38
2022-08-19T01:36:50.091Z,17.40
2022-08-19T01:37:57.615Z,18.25
2022-08-19T01:39:00.944Z,15.73
2022-08-19T01:40:07.545Z,16.85
2022-08-19T01:41:12.996Z,17.88
2022-08-19T01:42:14.655Z,15.85
2022-08-19T01:43:16.524Z,19.60
2022-08-19T01:44:21.192Z,14.90
2022-08-19T01:45:25.691Z,20.60
2022-08-19T01:46:28.151Z,18.02
2022-08-19T01:47:29.857Z,14.50
2022-08-19T01:48:38.497Z,20.13
2022-08-19T01:49:40.233Z,15.93
2022-08-19T01:50:42.681Z,17.55
2022-08-19T01:51:44.425Z,15.23
2022-08-19T01:52:46.898Z,15.38
2022-08-19T01:54:00.939Z,18.58
2022-08-19T01:55:02.616Z,16.35
2022-08-19T01:56:05.219Z,17.27
2022-08-19T01:57:12.141Z,17.52
2022-08-19T01:58:19.673Z,18.08
2022-08-19T01:59:23.979Z,19.02
2022-08-19T02:00:29.026Z,15.02
2022-08-19T02:01:33.074Z,22.20
2022-08-19T02:02:34.982Z,15.85
2022-08-19T02:03:36.718Z,15.05
2022-08-19T02:04:39.555Z,16.42
2022-08-19T02:05:42.019Z,16.58
2022-08-19T02:06:43.827Z,15.77
2022-08-19T02:07:45.830Z,14.80
2022-08-19T02:08:48.751Z,23.27
2022-08-19T02:09:53.056Z,16.17
2022-08-19T02:10:54.860Z,18.55
2022-08-19T02:11:57.106Z,19.52
2022-08-19T02:12:59.111Z,17.45
2022-08-19T02:14:06.653Z,16.45
2022-08-19T02:15:08.883Z,16.55
2022-08-19T02:16:10.885Z,18.85
2022-08-19T02:17:12.938Z,16.83
2022-08-19T02:18:15.301Z,21.60
2022-08-19T02:19:17.208Z,15.85
2022-08-19T02:20:19.015Z,16.08
2022-08-19T02:21:22.983Z,22.15
2022-08-19T02:22:26.692Z,16.52
2022-08-19T02:23:28.424Z,18.17
2022-08-19T02:24:30.111Z,16.20
2022-08-19T02:25:32.055Z,18.10
2022-08-19T02:26:34.148Z,19.92
2022-08-19T02:27:35.898Z,17.02
2022-08-19T02:28:37.574Z,20.50
2022-08-19T02:29:39.230Z,21.95
2022-08-19T02:30:43.226Z,18.30
2022-08-19T02:31:45.458Z,18.17
2022-08-19T02:32:47.709Z,20.05
2022-08-19T02:33:49.637Z,19.08
2022-08-19T02:34:51.498Z,18.23
2022-08-19T02:35:53.276Z,20.65
2022-08-19T02:36:55.201Z,20.70
2022-08-19T02:38:15.577Z,20.73
2022-08-19T02:39:17.454Z,20.60
2022-08-19T02:40:19.526Z,20.05
2022-08-19T02:41:26.755Z,19.83
2022-08-19T02:42:29.014Z,23.95
2022-08-19T02:43:34.463Z,19.52
2022-08-19T02:44:36.311Z,20.25
2022-08-19T02:45:41.569Z,21.85
2022-08-19T02:46:45.894Z,18.67
2022-08-19T02:47:47.726Z,19.35
2022-08-19T02:48:52.556Z,21.10
2022-08-19T02:49:54.160Z,21.48
2022-08-19T02:50:56.384Z,18.63
2022-08-19T02:51:58.117Z,23.70
2022-08-19T02:52:59.827Z,23.23
2022-08-19T02:54:02.430Z,19.25
2022-08-19T02:55:04.989Z,19.83
2022-08-19T02:56:08.816Z,20.58
2022-08-19T02:57:10.753Z,18.55
2022-08-19T02:58:13.315Z,19.05
2022-08-19T02:59:15.091Z,22.48
2022-08-19T03:00:17.488Z,19.55
2022-08-19T03:01:28.165Z,19.85
2022-08-19T03:03:32.401Z,20.20
2022-08-19T03:04:34.437Z,19.02
2022-08-19T03:05:48.248Z,21.77
2022-08-19T03:07:02.565Z,22.00
2022-08-19T03:08:13.600Z,19.48
2022-08-19T03:09:15.654Z,18.88
2022-08-19T03:10:17.804Z,19.75
2022-08-19T03:11:21.398Z,18.92
2022-08-19T03:12:23.285Z,21.48
2022-08-19T03:13:24.991Z,21.95
2022-08-19T03:14:26.838Z,18.38
2022-08-19T03:15:28.807Z,18.02
2022-08-19T03:16:33.147Z,19.83
2022-08-19T03:17:36.230Z,17.75
2022-08-19T03:18:38.372Z,20.70
2022-08-19T03:19:40.355Z,22.83
2022-08-19T03:20:48.965Z,20.45
2022-08-19T03:21:51.760Z,16.80
2022-08-19T03:22:53.569Z,18.50
2022-08-19T03:23:56.587Z,22.23
2022-08-19T03:24:58.400Z,22.38
2022-08-19T03:26:15.984Z,17.50
2022-08-19T03:27:18.838Z,18.38
2022-08-19T03:28:22.082Z,17.90
2022-08-19T03:29:28.349Z,17.85
2022-08-19T03:30:33.178Z,22.42
2022-08-19T03:31:44.942Z,18.30
2022-08-19T03:32:57.051Z,19.90
2022-08-19T03:33:59.283Z,20.60
2022-08-19T03:35:01.282Z,18.67
2022-08-19T03:36:09.341Z,18.63
2022-08-19T03:37:15.389Z,18.23
2022-08-19T03:38:17.069Z,19.05
2022-08-19T03:39:19.253Z,18.60
2022-08-19T03:40:21.149Z,18.10
2022-08-19T03:41:27.067Z,18.17
2022-08-19T03:42:49.427Z,19.77
2022-08-19T03:43:52.711Z,24.23
2022-08-19T03:44:54.505Z,21.98
2022-08-19T03:46:08.069Z,23.25
2022-08-19T03:47:09.862Z,22.65
2022-08-19T03:48:11.539Z,19.42
2022-08-19T03:49:13.961Z,23.48
2022-08-19T03:50:17.288Z,21.77
2022-08-19T03:51:30.862Z,20.77
2022-08-19T03:52:32.956Z,20.48
2022-08-19T03:53:36.734Z,21.95
2022-08-19T03:54:39.368Z,20.38
2022-08-19T03:55:42.756Z,19.73
2022-08-19T03:56:45.754Z,21.92
2022-08-19T03:57:49.604Z,20.90
2022-08-19T03:58:51.165Z,20.73
2022-08-19T03:59:53.365Z,22.65
2022-08-19T04:00:58.105Z,20.67
2022-08-19T04:02:02.216Z,22.75
2022-08-19T04:03:04.256Z,21.05
2022-08-19T04:04:06.282Z,23.52
2022-08-19T04:05:09.253Z,20.40
2022-08-19T04:06:23.852Z,23.83
2022-08-19T04:07:25.861Z,22.55
2022-08-19T04:08:27.911Z,21.15
2022-08-19T04:09:29.888Z,20.10
2022-08-19T04:10:32.293Z,25.30
2022-08-19T04:11:44.634Z,21.42
2022-08-19T04:12:47.346Z,20.15
2022-08-19T04:13:53.474Z,23.65
2022-08-19T04:14:55.468Z,24.60
2022-08-19T04:15:57.549Z,23.00
2022-08-19T04:17:01.169Z,25.27
2022-08-19T04:18:03.065Z,20.40
2022-08-19T04:19:06.030Z,20.70
2022-08-19T04:20:08.323Z,21.25
2022-08-19T04:21:17.402Z,20.85
2022-08-19T04:22:19.603Z,21.38
2022-08-19T04:23:21.262Z,21.30
2022-08-19T04:24:23.974Z,20.80
2022-08-19T04:25:25.615Z,21.02
2022-08-19T04:26:33.229Z,21.10
2022-08-19T04:27:35.065Z,21.27
2022-08-19T04:28:37.760Z,22.50
2022-08-19T04:29:40.500Z,20.98
2022-08-19T04:30:50.895Z,34.22
2022-08-19T04:31:54.745Z,23.25
2022-08-19T04:32:56.363Z,21.27
2022-08-19T04:34:00.936Z,22.08
2022-08-19T04:35:16.805Z,23.15
2022-08-19T04:36:23.037Z,21.10
2022-08-19T04:37:25.681Z,22.17
2022-08-19T04:38:27.315Z,20.50
2022-08-19T04:39:49.884Z,19.17
2022-08-19T04:41:11.632Z,21.27
2022-08-19T04:42:33.022Z,19.63
2022-08-19T04:43:37.224Z,18.67
2022-08-19T04:44:45.991Z,19.88
2022-08-19T04:45:48.811Z,21.38
2022-08-19T04:46:52.134Z,19.98
2022-08-19T04:48:26.449Z,27.67
2022-08-19T04:49:23.298Z,20.20
2022-08-19T04:50:28.478Z,20.00
2022-08-19T04:51:32.225Z,19.30
2022-08-19T04:52:34.917Z,20.98
2022-08-19T04:53:38.507Z,21.27
2022-08-19T04:54:40.226Z,19.90
2022-08-19T04:55:43.431Z,19.00
2022-08-19T04:56:45.225Z,20.95
2022-08-19T04:57:47.054Z,19.17
2022-08-19T04:58:51.552Z,18.98
2022-08-19T04:59:56.925Z,19.45
2022-08-19T05:01:01.001Z,19.17
2022-08-19T05:02:03.771Z,19.23
2022-08-19T05:03:07.780Z,18.80
2022-08-19T05:04:10.247Z,20.23
2022-08-19T05:05:12.085Z,18.98
2022-08-19T05:06:16.418Z,20.90
2022-08-19T05:07:18.187Z,19.15
2022-08-19T05:08:30.969Z,19.83
2022-08-19T05:09:56.728Z,20.05
2022-08-19T05:10:55.115Z,20.33
2022-08-19T05:11:56.847Z,23.33
2022-08-19T05:12:58.639Z,19.17
2022-08-19T05:14:00.667Z,19.05
2022-08-19T05:15:04.807Z,25.77
2022-08-19T05:16:07.609Z,25.33
2022-08-19T05:17:26.629Z,22.92
2022-08-19T05:18:47.965Z,21.67
2022-08-19T05:20:08.206Z,20.60
2022-08-19T05:21:30.962Z,18.83
2022-08-19T05:22:35.568Z,26.00
2022-08-19T05:23:37.339Z,20.23
2022-08-19T05:24:56.463Z,20.40
2022-08-19T05:26:01.132Z,20.48
2022-08-19T05:27:05.379Z,21.02
2022-08-19T05:28:07.009Z,21.27
2022-08-19T05:29:10.330Z,19.70
2022-08-19T05:30:12.845Z,22.05
2022-08-19T05:31:14.752Z,20.40
2022-08-19T05:32:17.307Z,21.88
2022-08-19T05:33:19.564Z,20.05
2022-08-19T05:34:23.030Z,23.40
2022-08-19T05:35:25.180Z,19.83
2022-08-19T05:36:27.957Z,20.35
2022-08-19T05:37:29.834Z,23.92
2022-08-19T05:38:31.458Z,19.63
2022-08-19T05:39:36.520Z,19.75
2022-08-19T05:40:39.787Z,22.02
2022-08-19T05:41:47.447Z,29.00
2022-08-19T05:42:51.381Z,21.17
2022-08-19T05:43:58.608Z,21.35
2022-08-19T05:45:00.317Z,22.98
2022-08-19T05:46:02.604Z,24.83
2022-08-19T05:47:07.449Z,22.98
2022-08-19T05:48:12.164Z,21.98
2022-08-19T05:49:16.647Z,22.58
2022-08-19T05:50:18.582Z,24.90
2022-08-19T05:51:20.427Z,22.85
2022-08-19T05:52:25.781Z,20.75
2022-08-19T05:53:28.007Z,21.42
2022-08-19T05:54:29.662Z,22.60
2022-08-19T05:55:31.940Z,21.27
2022-08-19T05:56:36.658Z,21.80
2022-08-19T05:57:38.597Z,21.02
2022-08-19T05:58:40.350Z,19.45
2022-08-19T05:59:42.938Z,20.17
2022-08-19T06:00:46.065Z,23.88
2022-08-19T06:01:51.478Z,24.05
2022-08-19T06:02:53.496Z,25.60
2022-08-19T06:03:55.269Z,20.30
2022-08-19T06:04:57.014Z,24.42
2022-08-19T06:06:00.319Z,23.67
2022-08-19T06:07:12.676Z,22.23
2022-08-19T06:08:14.864Z,19.65
2022-08-19T06:09:16.545Z,19.23
2022-08-19T06:10:18.309Z,18.60
2022-08-19T06:11:33.657Z,23.50
2022-08-19T06:12:36.530Z,18.48
2022-08-19T06:13:38.173Z,23.30
2022-08-19T06:14:41.875Z,20.38
2022-08-19T06:15:45.301Z,18.25
2022-08-19T06:16:47.029Z,18.88
2022-08-19T06:17:48.956Z,22.60
2022-08-19T06:18:55.058Z,20.75
2022-08-19T06:19:57.237Z,24.30
2022-08-19T06:20:58.996Z,22.02
2022-08-19T06:22:01.118Z,19.00
2022-08-19T06:23:04.181Z,23.02
2022-08-19T06:24:07.681Z,24.65
2022-08-19T06:25:12.598Z,18.55
2022-08-19T06:26:16.332Z,25.63
2022-08-19T06:27:17.942Z,23.17
2022-08-19T06:28:20.302Z,21.40
2022-08-19T06:29:25.853Z,17.95
2022-08-19T06:30:28.119Z,18.63
2022-08-19T06:31:32.322Z,30.35
2022-08-19T06:32:34.103Z,20.55
2022-08-19T06:33:36.736Z,18.73
2022-08-19T06:34:39.114Z,27.55
2022-08-19T06:35:42.665Z,18.52
2022-08-19T06:36:52.161Z,21.85
2022-08-19T06:37:54.646Z,18.98
2022-08-19T06:39:00.085Z,19.20
2022-08-19T06:40:01.885Z,20.50
2022-08-19T06:41:07.328Z,21.77
2022-08-19T06:42:12.581Z,20.98
2022-08-19T06:43:16.528Z,23.17
2022-08-19T06:44:22.398Z,20.67
2022-08-19T06:45:34.438Z,19.33
2022-08-19T06:46:38.826Z,20.75
2022-08-19T06:47:44.845Z,20.83
2022-08-19T06:48:47.829Z,21.70
2022-08-19T06:49:49.781Z,17.80
2022-08-19T06:50:52.799Z,18.30
2022-08-19T06:51:54.496Z,20.05
2022-08-19T06:52:56.509Z,21.67
2022-08-19T06:53:58.789Z,29.73
2022-08-19T06:55:01.480Z,19.58
2022-08-19T06:56:07.808Z,22.98
2022-08-19T06:57:14.295Z,21.75
2022-08-19T06:58:16.342Z,25.23
2022-08-19T06:59:23.886Z,21.90
2022-08-19T07:00:25.567Z,20.58
2022-08-19T07:01:27.765Z,20.20
2022-08-19T07:02:29.767Z,22.27
2022-08-19T07:03:33.965Z,19.15
2022-08-19T07:04:42.075Z,19.40
2022-08-19T07:05:45.797Z,21.50
2022-08-19T07:06:54.873Z,19.10
2022-08-19T07:08:01.643Z,23.98
2022-08-19T07:09:08.217Z,18.30
2022-08-19T07:10:10.775Z,23.58
2022-08-19T07:11:14.878Z,22.83
2022-08-19T07:12:16.565Z,18.77
2022-08-19T07:13:18.264Z,21.80
2022-08-19T07:14:22.415Z,20.65
2022-08-19T07:15:24.511Z,24.98
2022-08-19T07:16:28.871Z,22.50
2022-08-19T07:17:31.297Z,22.67
2022-08-19T07:18:33.185Z,19.08
2022-08-19T07:19:35.500Z,20.70
2022-08-19T07:20:38.074Z,17.60
2022-08-19T07:21:42.374Z,22.85
2022-08-19T07:22:44.041Z,18.73
2022-08-19T07:23:46.509Z,21.73
2022-08-19T07:24:51.118Z,22.55
2022-08-19T07:25:53.493Z,18.42
2022-08-19T07:27:02.679Z,20.60
2022-08-19T07:28:04.916Z,19.65
2022-08-19T07:29:07.401Z,21.45
2022-08-19T07:30:14.462Z,22.48
2022-08-19T07:31:25.486Z,21.58
2022-08-19T07:32:27.887Z,20.80
2022-08-19T07:33:33.376Z,22.45
2022-08-19T07:34:38.516Z,19.80
2022-08-19T07:35:42.263Z,18.25
2022-08-19T07:36:44.833Z,19.42
2022-08-19T07:37:47.155Z,20.90
2022-08-19T07:38:51.219Z,20.17
2022-08-19T07:39:52.953Z,23.50
2022-08-19T07:40:55.163Z,23.02
2022-08-19T07:41:58.637Z,26.30
2022-08-19T07:43:00.320Z,20.08
2022-08-19T07:44:04.817Z,24.70
2022-08-19T07:45:08.150Z,20.02
2022-08-19T07:47:47.989Z,21.35
2022-08-19T07:48:42.438Z,24.80
2022-08-19T07:49:44.134Z,20.48
2022-08-19T07:50:46.499Z,28.35
2022-08-19T07:51:51.521Z,23.88
2022-08-19T07:52:53.381Z,29.35
2022-08-19T07:53:55.602Z,25.75
2022-08-19T07:54:58.379Z,24.92
2022-08-19T07:56:04.631Z,24.23
2022-08-19T07:57:07.821Z,30.60
2022-08-19T07:58:09.862Z,30.38
2022-08-19T07:59:11.554Z,24.98
2022-08-19T08:00:13.903Z,27.25
2022-08-19T08:01:22.316Z,24.17
2022-08-19T08:02:24.008Z,23.23
2022-08-19T08:03:46.972Z,26.85
2022-08-19T08:05:07.031Z,27.42
2022-08-19T08:06:28.047Z,26.63
2022-08-19T08:07:48.869Z,25.83
2022-08-19T08:09:09.257Z,29.27
2022-08-19T08:10:21.324Z,23.77
2022-08-19T08:11:24.096Z,25.77
2022-08-19T08:12:35.026Z,32.92
2022-08-19T08:13:39.119Z,25.08
2022-08-19T08:14:48.616Z,26.45
2022-08-19T08:15:51.654Z,23.63
2022-08-19T08:16:54.846Z,25.55
2022-08-19T08:17:58.589Z,23.50
2022-08-19T08:19:01.281Z,25.10
2022-08-19T08:20:07.825Z,25.02
2022-08-19T08:21:09.846Z,25.60
2022-08-19T08:22:35.263Z,27.73
2022-08-19T08:23:37.077Z,25.30
2022-08-19T08:24:41.560Z,26.25
2022-08-19T08:25:43.253Z,32.47
2022-08-19T08:26:47.001Z,34.92
2022-08-19T08:27:55.341Z,32.50
2022-08-19T08:28:57.510Z,31.75
2022-08-19T08:29:59.381Z,31.65
2022-08-19T08:31:09.554Z,35.90
2022-08-19T08:32:14.184Z,35.17
2022-08-19T08:33:32.712Z,31.00
2022-08-19T08:34:37.996Z,29.30
2022-08-19T08:35:46.513Z,30.75
2022-08-19T08:36:48.535Z,38.65
2022-08-19T08:37:53.252Z,32.20
2022-08-19T08:40:00.241Z,33.20
2022-08-19T08:41:20.226Z,33.85
2022-08-19T08:42:55.857Z,31.17
2022-08-19T08:43:58.231Z,38.92
2022-08-19T08:45:04.292Z,34.35
2022-08-19T08:46:08.993Z,34.00
2022-08-19T08:47:18.164Z,36.97
2022-08-19T08:48:44.128Z,29.55
2022-08-19T08:50:05.336Z,31.63
2022-08-19T08:51:15.181Z,31.65
2022-08-19T08:52:31.828Z,24.05
2022-08-19T08:53:40.483Z,31.85
2022-08-19T08:54:48.776Z,24.02
2022-08-19T08:55:56.560Z,23.48
2022-08-19T08:56:58.589Z,21.85
2022-08-19T08:58:08.590Z,28.45
2022-08-19T08:59:29.046Z,22.52
2022-08-19T09:00:37.653Z,24.95
2022-08-19T09:01:40.496Z,26.70
2022-08-19T09:02:43.393Z,28.08
2022-08-19T09:03:46.415Z,27.55
2022-08-19T09:04:49.580Z,22.98
2022-08-19T09:06:13.559Z,27.85
2022-08-19T09:07:35.389Z,25.05
2022-08-19T09:08:46.447Z,23.58
2022-08-19T09:09:53.185Z,23.50
2022-08-19T09:10:58.583Z,20.70
2022-08-19T09:12:11.982Z,22.58
2022-08-19T09:13:38.945Z,22.38
2022-08-19T09:14:52.170Z,26.08
2022-08-19T09:16:05.561Z,27.75
2022-08-19T09:17:09.111Z,26.20
2022-08-19T09:18:15.142Z,24.10
2022-08-19T09:19:22.355Z,27.80
2022-08-19T09:20:26.207Z,26.00
2022-08-19T09:21:34.273Z,24.95
2022-08-19T09:22:40.532Z,23.27
2022-08-19T09:23:44.684Z,31.25
2022-08-19T09:24:46.713Z,23.70
2022-08-19T09:25:48.427Z,24.73
2022-08-19T09:26:52.975Z,24.65
2022-08-19T09:28:03.098Z,23.63
2022-08-19T09:29:07.804Z,27.98
2022-08-19T09:30:13.745Z,27.58
2022-08-19T09:31:19.065Z,29.58
2022-08-19T09:32:26.816Z,26.67
2022-08-19T09:33:28.838Z,25.15
2022-08-19T09:34:37.994Z,25.75
2022-08-19T09:35:53.030Z,23.48
2022-08-19T09:36:59.164Z,32.17
2022-08-19T09:38:01.373Z,24.38
2022-08-19T09:39:14.821Z,23.08
2022-08-19T09:40:18.887Z,23.58
2022-08-19T09:41:22.496Z,24.17
2022-08-19T09:42:30.287Z,25.27
2022-08-19T09:43:44.245Z,38.00
2022-08-19T09:44:46.930Z,23.38
2022-08-19T09:45:48.889Z,27.02
2022-08-19T09:46:51.866Z,31.10
2022-08-19T09:47:55.265Z,31.73
2022-08-19T09:49:06.039Z,27.30
2022-08-19T09:50:11.809Z,24.33
2022-08-19T09:51:22.303Z,22.55
2022-08-19T09:52:25.067Z,25.90
2022-08-19T09:53:35.962Z,29.10
2022-08-19T09:54:40.129Z,22.55
2022-08-19T09:55:46.202Z,21.90
2022-08-19T09:56:48.041Z,24.05
2022-08-19T09:57:49.791Z,24.15
2022-08-19T09:58:51.746Z,27.20
2022-08-19T09:59:54.428Z,24.10
2022-08-19T10:00:57.308Z,24.60
2022-08-19T10:02:03.653Z,24.05
2022-08-19T10:03:12.623Z,24.42
2022-08-19T10:04:14.710Z,23.88
2022-08-19T10:05:42.475Z,28.27
2022-08-19T10:06:46.242Z,23.65
2022-08-19T10:07:48.791Z,26.90
2022-08-19T10:08:50.753Z,21.70
2022-08-19T10:09:52.496Z,22.20
2022-08-19T10:10:56.429Z,26.30
2022-08-19T10:12:02.559Z,21.77
2022-08-19T10:13:04.932Z,25.23
2022-08-19T10:14:07.154Z,23.63
2022-08-19T10:15:09.333Z,23.98
2022-08-19T10:16:15.716Z,22.58
2022-08-19T10:17:20.743Z,22.95
2022-08-19T10:18:25.642Z,23.63
2022-08-19T10:19:29.217Z,22.10
2022-08-19T10:20:31.516Z,23.05
2022-08-19T10:21:35.350Z,22.70
2022-08-19T10:22:38.415Z,22.95
2022-08-19T10:23:46.193Z,22.05
2022-08-19T10:24:48.012Z,21.65
2022-08-19T10:25:50.727Z,22.92
2022-08-19T10:26:57.392Z,25.15
2022-08-19T10:28:01.517Z,23.85
2022-08-19T10:29:05.653Z,23.83
2022-08-19T10:30:09.857Z,22.67
2022-08-19T10:32:01.216Z,23.98
2022-08-19T10:32:46.926Z,23.02
2022-08-19T10:33:53.914Z,24.35
2022-08-19T10:34:57.407Z,27.05
2022-08-19T10:36:05.595Z,24.77
2022-08-19T10:37:10.741Z,25.45
2022-08-19T10:38:12.556Z,23.25
2022-08-19T10:39:14.259Z,37.38
2022-08-19T10:40:16.307Z,31.80
2022-08-19T10:41:26.424Z,24.55
2022-08-19T10:42:28.368Z,22.90
2022-08-19T10:43:29.992Z,26.95
2022-08-19T10:44:33.195Z,25.27
2022-08-19T10:45:34.840Z,23.17
2022-08-19T10:46:45.135Z,26.23
2022-08-19T10:47:50.261Z,25.35
2022-08-19T10:48:53.367Z,23.52
2022-08-19T10:50:14.433Z,33.38
2022-08-19T10:51:36.088Z,27.10
2022-08-19T10:52:50.932Z,25.40
2022-08-19T10:53:52.698Z,24.58
2022-08-19T10:55:13.318Z,25.17
2022-08-19T10:56:34.653Z,24.80
2022-08-19T10:57:59.420Z,25.45
2022-08-19T10:58:59.105Z,30.55
2022-08-19T11:00:00.724Z,27.70
2022-08-19T11:01:02.511Z,27.48
2022-08-19T11:02:07.486Z,34.13
2022-08-19T11:03:09.523Z,29.90
2022-08-19T11:04:14.692Z,28.83
2022-08-19T11:05:18.122Z,26.27
2022-08-19T11:06:21.528Z,26.05
2022-08-19T11:07:26.164Z,28.10
2022-08-19T11:08:28.536Z,27.75
2022-08-19T11:09:33.919Z,26.98
2022-08-19T11:10:37.363Z,27.50
2022-08-19T11:11:41.777Z,30.88
2022-08-19T11:12:43.626Z,31.30
2022-08-19T11:13:47.447Z,33.30
2022-08-19T11:14:50.900Z,28.23
2022-08-19T11:16:07.699Z,32.42
2022-08-19T11:17:10.276Z,27.45
2022-08-19T11:18:13.326Z,27.48
2022-08-19T11:19:18.110Z,34.00
2022-08-19T11:20:19.881Z,28.10
2022-08-19T11:21:33.145Z,28.15
2022-08-19T11:22:40.528Z,37.00
2022-08-19T11:23:44.372Z,26.48
2022-08-19T11:24:46.006Z,27.75
2022-08-19T11:25:47.687Z,28.83
2022-08-19T11:26:51.478Z,31.42
2022-08-19T11:27:53.489Z,27.92
2022-08-19T11:28:55.680Z,28.38
2022-08-19T11:29:57.465Z,27.35
2022-08-19T11:30:59.179Z,28.25
2022-08-19T11:32:04.261Z,26.77
2022-08-19T11:33:05.955Z,28.20
2022-08-19T11:34:10.728Z,26.13
2022-08-19T11:35:12.687Z,29.25
2022-08-19T11:36:15.154Z,30.65
2022-08-19T11:37:17.045Z,27.23
2022-08-19T11:38:19.406Z,28.13
2022-08-19T11:39:23.142Z,35.25
2022-08-19T11:40:24.875Z,27.50
2022-08-19T11:41:27.124Z,27.35
2022-08-19T11:42:47.103Z,30.27
2022-08-19T11:43:48.880Z,33.85
2022-08-19T11:44:51.046Z,26.63
2022-08-19T11:45:52.890Z,30.90
2022-08-19T11:46:54.741Z,31.42
2022-08-19T11:47:56.940Z,27.23
2022-08-19T11:49:00.356Z,29.98
2022-08-19T11:50:02.340Z,31.00
2022-08-19T11:51:10.290Z,28.58
2022-08-19T11:52:12.142Z,27.63
2022-08-19T11:53:13.810Z,28.35
2022-08-19T11:54:17.296Z,30.20
2022-08-19T11:55:20.410Z,28.55
2022-08-19T11:56:23.169Z,31.85
2022-08-19T11:57:24.934Z,30.38
2022-08-19T11:58:26.636Z,29.65
2022-08-19T11:59:28.434Z,29.98
2022-08-19T12:00:31.410Z,29.45
2022-08-19T12:01:33.149Z,26.27
2022-08-19T12:02:34.922Z,26.13
2022-08-19T12:03:37.543Z,30.05
2022-08-19T12:04:39.309Z,25.70
2022-08-19T12:05:41.690Z,25.60
2022-08-19T12:06:43.377Z,31.15
2022-08-19T12:07:45.083Z,26.35
2022-08-19T12:08:48.443Z,27.75
2022-08-19T12:09:50.152Z,28.48
2022-08-19T12:10:52.051Z,25.35
2022-08-19T12:11:53.807Z,25.55
2022-08-19T12:12:58.870Z,26.02
2022-08-19T12:14:00.924Z,32.10
2022-08-19T12:15:03.271Z,27.88
2022-08-19T12:16:11.786Z,26.50
2022-08-19T12:17:14.369Z,26.45
2022-08-19T12:18:16.119Z,32.10
2022-08-19T12:19:21.795Z,33.83
2022-08-19T12:20:25.673Z,26.10
2022-08-19T12:21:31.560Z,28.15
2022-08-19T12:22:33.226Z,27.05
2022-08-19T12:23:34.930Z,28.30
2022-08-19T12:24:36.829Z,27.40
2022-08-19T12:25:49.368Z,28.45
2022-08-19T12:26:52.782Z,28.70
2022-08-19T12:27:57.449Z,29.08
2022-08-19T12:29:00.494Z,28.73
2022-08-19T12:30:06.270Z,31.77
2022-08-19T12:31:09.121Z,27.25
2022-08-19T12:32:12.192Z,30.70
2022-08-19T12:33:15.047Z,28.55
2022-08-19T12:34:17.166Z,29.55
2022-08-19T12:35:20.934Z,27.65
2022-08-19T12:36:24.231Z,27.10
2022-08-19T12:37:26.088Z,29.55
2022-08-19T12:38:28.168Z,28.98
2022-08-19T12:39:31.422Z,28.20
2022-08-19T12:40:33.182Z,28.75
2022-08-19T12:41:34.894Z,30.23
2022-08-19T12:42:43.074Z,30.02
2022-08-19T12:43:45.272Z,29.05
2022-08-19T12:44:48.324Z,29.77
2022-08-19T12:45:50.143Z,30.10
2022-08-19T12:46:53.713Z,28.98
2022-08-19T12:47:55.913Z,31.00
2022-08-19T12:48:59.097Z,31.40
2022-08-19T12:50:09.530Z,31.85
2022-08-19T12:51:14.458Z,25.55
2022-08-19T12:52:22.942Z,26.90
2022-08-19T12:53:25.836Z,28.60
2022-08-19T12:54:30.503Z,25.15
2022-08-19T12:55:32.697Z,25.10
2022-08-19T12:56:34.495Z,24.52
2022-08-19T12:57:36.665Z,26.27
2022-08-19T12:58:38.519Z,24.98
2022-08-19T12:59:40.326Z,28.70
2022-08-19T13:00:42.154Z,24.83
2022-08-19T13:01:44.969Z,23.80
2022-08-19T13:02:50.702Z,32.45
2022-08-19T13:03:53.476Z,23.73
2022-08-19T13:04:55.392Z,25.20
2022-08-19T13:05:57.701Z,23.52
2022-08-19T13:06:59.739Z,26.90
2022-08-19T13:08:01.473Z,25.23
2022-08-19T13:09:04.147Z,30.65
2022-08-19T13:10:08.455Z,30.27
2022-08-19T13:11:15.768Z,27.55
2022-08-19T13:12:18.130Z,29.17
2022-08-19T13:13:19.935Z,28.73
2022-08-19T13:14:21.559Z,29.27
2022-08-19T13:15:24.761Z,30.65
2022-08-19T13:16:28.610Z,29.50
2022-08-19T13:17:30.299Z,31.33
2022-08-19T13:18:32.548Z,32.92
2022-08-19T13:19:34.240Z,33.97
2022-08-19T13:20:37.159Z,33.53
2022-08-19T13:21:39.430Z,32.05
2022-08-19T13:22:41.108Z,32.50
2022-08-19T13:23:42.950Z,33.28
2022-08-19T13:24:47.278Z,38.40
2022-08-19T13:26:00.100Z,33.67
2022-08-19T13:27:02.040Z,39.90
2022-08-19T13:28:04.994Z,36.60
2022-08-19T13:29:25.260Z,37.08
2022-08-19T13:30:45.616Z,38.83
2022-08-19T13:32:05.916Z,38.15
2022-08-19T13:33:11.855Z,37.88
2022-08-19T13:34:15.532Z,37.85
2022-08-19T13:35:17.606Z,38.15
2022-08-19T13:36:19.195Z,36.10
2022-08-19T13:37:40.880Z,39.60
2022-08-19T13:38:42.674Z,43.60
2022-08-19T13:39:46.089Z,43.50
2022-08-19T13:40:48.663Z,39.00
2022-08-19T13:41:50.974Z,39.10
2022-08-19T13:42:55.436Z,39.17
2022-08-19T13:43:57.296Z,40.90
2022-08-19T13:44:59.496Z,35.33
2022-08-19T13:46:01.469Z,37.80
2022-08-19T13:47:08.113Z,37.17
2022-08-19T13:48:10.087Z,36.60
2022-08-19T13:49:13.892Z,47.72
2022-08-19T13:50:18.683Z,40.58
2022-08-19T13:51:20.468Z,46.53
2022-08-19T13:52:22.136Z,37.83
2022-08-19T13:53:24.541Z,36.55
2022-08-19T13:54:28.086Z,38.78
2022-08-19T13:55:29.934Z,40.63
2022-08-19T13:56:31.698Z,37.33
2022-08-19T13:57:33.555Z,43.83
2022-08-19T13:58:35.379Z,36.97
2022-08-19T13:59:37.291Z,37.65